Time;durP1;ratioP1;P1;durP2;ratioP2;P2;SDS_P1;SDS_P2;PMS_P1;PMS_P2;Temp;Humidity;BMP_temperature;BMP_pressure;BME280_temperature;BME280_humidity;BME280_pressure;Samples;Min_cycle;Max_cycle;Signal;HPM_P1;HPM_P2
2023/10/15 00:00:13;;;;;;;15.63;2.85;;;;;;;-3.36;100.00;99146.38;4971660;28;20051;-65
2023/10/15 00:02:44;;;;;;;14.35;2.85;;;;;;;-5.11;100.00;98867.22;4971684;28;20117;-65
2023/10/15 00:05:18;;;;;;;17.50;2.72;;;;;;;-5.74;100.00;98752.19;4971646;28;20046;-65
2023/10/15 00:07:47;;;;;;;18.63;3.28;;;;;;;-5.86;100.00;98729.53;4971075;28;20062;-65
2023/10/15 00:10:16;;;;;;;17.33;2.63;;;;;;;-5.72;100.00;98760.75;4970861;28;20411;-65
2023/10/15 00:12:45;;;;;;;12.13;2.55;;;;;;;-6.69;100.00;98601.25;4969873;28;20066;-64
2023/10/15 00:15:18;;;;;;;16.60;2.85;;;;;;;-7.03;100.00;98545.31;4971058;28;20094;-64
2023/10/15 00:17:46;;;;;;;23.75;3.50;;;;;;;-6.71;100.00;98603.09;4971488;28;20125;-65
2023/10/15 00:20:17;;;;;;;15.90;3.13;;;;;;;-6.82;100.00;98580.34;4970966;28;20460;-65
2023/10/15 00:22:46;;;;;;;15.98;2.35;;;;;;;-9.07;100.00;98225.59;4971618;28;20069;-65
2023/10/15 00:25:18;;;;;;;13.50;2.60;;;;;;;-11.42;100.00;97848.78;4970663;28;20049;-65
2023/10/15 00:27:57;;;;;;;21.60;3.60;;;;;;;-11.64;100.00;97822.56;4971198;28;20138;-65
2023/10/15 00:30:32;;;;;;;12.48;2.67;;;;;;;-8.97;100.00;98238.81;4969963;28;20525;-65
2023/10/15 00:33:03;;;;;;;14.50;2.60;;;;;;;-9.06;100.00;98245.41;4970880;28;20491;-65
2023/10/15 00:35:33;;;;;;;17.42;3.00;;;;;;;-11.14;100.00;97906.63;4971053;28;20411;-65
2023/10/15 00:38:07;;;;;;;16.00;2.88;;;;;;;-11.91;100.00;97794.00;4951953;29;20047;-65
2023/10/15 00:40:37;;;;;;;17.02;2.83;;;;;;;-14.72;100.00;97349.56;4951463;29;20666;-65
2023/10/15 00:43:05;;;;;;;19.80;3.40;;;;;;;-16.07;100.00;97123.16;4953843;28;20050;-65
2023/10/15 00:45:45;;;;;;;18.60;3.00;;;;;;;-17.61;100.00;96884.44;4956011;29;20054;-65
2023/10/15 00:48:26;;;;;;;20.85;2.63;;;;;;;-19.38;100.00;96592.72;4955432;29;20043;-65
2023/10/15 00:50:54;;;;;;;17.30;2.58;;;;;;;-17.97;100.00;96834.22;4972045;28;20035;-65
2023/10/15 02:18:02;;;;;;;17.85;3.58;;;;;;;-149.70;100.00;77323.25;5835455;23;20059;-65
2023/10/15 02:23:23;;;;;;;27.80;3.35;;;;;;;-149.70;100.00;77325.28;4999067;28;20083;-64
2023/10/15 02:25:58;;;;;;;21.02;3.85;;;;;;;-149.70;100.00;77321.19;4998380;28;20039;-64
2023/10/15 04:23:43;;;;;;;25.73;3.10;;;;;;;-149.70;100.00;77435.09;5500929;23;20047;-60
2023/10/15 04:26:11;;;;;;;21.17;3.38;;;;;;;-149.70;100.00;77422.91;4970793;28;20050;-65
2023/10/15 04:28:40;;;;;;;23.50;3.47;;;;;;;-149.70;100.00;77429.00;4975151;28;20081;-68
2023/10/15 04:31:22;;;;;;;16.67;2.83;;;;;;;-149.70;100.00;77424.94;5007805;23;20480;-64
2023/10/15 04:33:52;;;;;;;18.75;2.35;;;;;;;-149.70;100.00;77414.75;5081352;23;20051;-63
2023/10/15 04:36:19;;;;;;;21.05;3.05;;;;;;;-149.70;100.00;77420.84;4972308;28;20038;-66
2023/10/15 04:38:46;;;;;;;17.48;3.25;;;;;;;-149.70;100.00;77426.97;5053174;23;20043;-69
2023/10/15 04:41:23;;;;;;;19.30;3.20;;;;;;;-149.70;100.00;77416.78;5004707;28;20022;-64
2023/10/15 04:43:50;;;;;;;20.42;3.00;;;;;;;-149.70;100.00;77412.72;5014765;28;20038;-64
2023/10/15 06:56:45;;;;;;;18.73;2.97;;;;;;;-149.70;100.00;77429.00;5038717;23;20030;-64
2023/10/15 06:59:12;;;;;;;17.92;2.58;;;;;;;-149.70;100.00;77418.81;4998567;28;20046;-64
2023/10/15 07:01:38;;;;;;;14.95;2.88;;;;;;;-149.70;100.00;77414.75;4998685;28;20030;-64
2023/10/15 07:04:07;;;;;;;21.80;3.42;;;;;;;-149.70;100.00;77424.94;4998960;28;20050;-64
2023/10/15 07:06:34;;;;;;;23.88;3.10;;;;;;;-149.70;100.00;77394.41;4998224;28;20050;-65
2023/10/15 07:09:00;;;;;;;19.38;3.17;;;;;;;-149.70;100.00;77382.22;4998358;28;20061;-64
2023/10/15 07:11:27;;;;;;;15.23;3.63;;;;;;;-149.70;100.00;77370.00;4998346;28;20041;-64
2023/10/15 07:13:54;;;;;;;18.88;3.85;;;;;;;-149.70;100.00;77367.97;4998717;28;20058;-64
2023/10/15 07:16:20;;;;;;;18.10;2.70;;;;;;;-149.70;100.00;77339.50;4998636;28;20074;-64
2023/10/15 07:18:47;;;;;;;18.42;3.20;;;;;;;-149.70;100.00;77345.59;4997826;28;20090;-64
2023/10/15 07:21:13;;;;;;;21.10;2.63;;;;;;;-149.70;100.00;77329.34;4998765;28;20027;-65
2023/10/15 07:23:40;;;;;;;21.23;2.85;;;;;;;-149.70;100.00;77321.19;4998713;28;20038;-65
2023/10/15 07:56:23;;;;;;;11.05;2.20;;;;;;;3.88;100.00;100236.63;5994183;23;20297;-64
2023/10/15 07:58:50;;;;;;;17.50;2.20;;;;;;;4.30;100.00;100284.41;5012576;28;20057;-64
2023/10/15 08:01:17;;;;;;;16.90;2.30;;;;;;;4.15;100.00;100302.50;5017204;28;20038;-64
2023/10/15 08:03:43;;;;;;;12.93;2.20;;;;;;;4.50;100.00;100317.28;5017226;28;20084;-64
2023/10/15 08:06:11;;;;;;;10.57;2.10;;;;;;;4.88;100.00;100326.44;5017160;28;20038;-64
2023/10/15 08:08:37;;;;;;;12.50;2.35;;;;;;;5.24;100.00;100354.28;5017336;28;20910;-64
2023/10/15 08:11:05;;;;;;;9.00;2.22;;;;;;;5.72;100.00;100364.19;5016092;28;20026;-64
2023/10/15 08:21:37;;;;;;;7.38;1.90;;;;;;;6.27;100.00;100387.69;5499368;23;20043;-63
2023/10/15 08:24:04;;;;;;;9.05;2.28;;;;;;;5.89;100.00;100390.16;4998201;28;20026;-63
2023/10/15 08:26:31;;;;;;;10.45;1.88;;;;;;;6.31;100.00;100394.41;4997942;28;20034;-64
2023/10/15 08:28:58;;;;;;;7.78;1.40;;;;;;;5.78;100.00;100395.59;4997471;28;20082;-64
2023/10/15 08:31:24;;;;;;;9.35;1.52;;;;;;;5.50;100.00;100390.06;4996653;28;20059;-65
2023/10/15 08:33:51;;;;;;;8.55;1.70;;;;;;;5.60;100.00;100384.78;5187943;23;20031;-65
2023/10/15 08:36:18;;;;;;;8.38;1.63;;;;;;;5.23;100.00;100390.66;4996514;28;20116;-64
2023/10/15 08:38:49;;;;;;;12.70;2.05;;;;;;;5.35;100.00;100394.09;4996623;28;20035;-63
2023/10/15 08:41:18;;;;;;;10.30;2.00;;;;;;;5.47;100.00;100408.13;4996078;28;20043;-64
2023/10/15 08:43:48;;;;;;;10.02;1.98;;;;;;;5.31;100.00;100405.94;4996167;28;20043;-64
2023/10/15 08:46:18;;;;;;;11.10;1.95;;;;;;;4.92;100.00;100400.44;4996117;28;20037;-64
2023/10/15 08:48:48;;;;;;;7.15;1.40;;;;;;;4.91;100.00;100404.09;4995987;28;20038;-65
2023/10/15 08:51:21;;;;;;;7.82;1.80;;;;;;;4.69;100.00;100417.50;4995784;28;20038;-65
2023/10/15 08:53:51;;;;;;;5.75;1.23;;;;;;;4.95;100.00;100404.66;4996057;28;20038;-64
2023/10/15 08:56:21;;;;;;;13.23;1.98;;;;;;;4.80;100.00;100406.84;4995198;28;20058;-65
2023/10/15 08:58:52;;;;;;;13.73;1.67;;;;;;;5.36;100.00;100413.53;5137232;23;20027;-64
2023/10/15 09:01:20;;;;;;;13.68;2.70;;;;;;;5.74;100.00;100411.00;4997514;28;20066;-64
2023/10/15 09:03:47;;;;;;;6.50;1.77;;;;;;;6.77;100.00;100416.81;4998875;28;20035;-64
2023/10/15 09:06:16;;;;;;;5.55;1.65;;;;;;;7.59;98.50;100411.63;5000905;28;20043;-64
2023/10/15 09:08:43;;;;;;;7.28;1.65;;;;;;;8.86;89.84;100427.56;5001242;28;20036;-64
2023/10/15 09:11:13;;;;;;;11.68;2.13;;;;;;;9.16;79.84;100434.31;5000848;28;20042;-64
2023/10/15 09:13:39;;;;;;;7.80;1.45;;;;;;;9.70;74.89;100442.97;4999748;28;20133;-65
2023/10/15 09:16:08;;;;;;;7.43;1.65;;;;;;;11.22;66.69;100456.88;5000188;28;20082;-65
2023/10/15 09:18:35;;;;;;;4.50;1.45;;;;;;;10.88;64.65;100449.03;4999749;28;20102;-65
2023/10/15 09:26:19;;;;;;;6.88;1.80;;;;;;;8.91;75.54;100465.38;5406464;23;20228;-64
2023/10/15 09:28:46;;;;;;;6.75;1.40;;;;;;;8.00;80.50;100462.88;5000679;28;20030;-64
2023/10/15 09:31:12;;;;;;;6.85;1.50;;;;;;;7.28;86.48;100466.25;5000964;28;20038;-64
2023/10/15 09:33:40;;;;;;;7.53;2.08;;;;;;;7.12;91.22;100469.53;5000429;28;20094;-64
2023/10/15 09:36:07;;;;;;;6.30;1.20;;;;;;;6.56;100.00;100476.44;5004633;28;20044;-65
2023/10/15 09:38:35;;;;;;;13.13;1.60;;;;;;;6.03;100.00;100465.28;5019241;28;20026;-65
2023/10/15 09:41:02;;;;;;;8.45;1.80;;;;;;;5.92;100.00;100476.91;5019238;28;20026;-64
2023/10/15 09:43:31;;;;;;;6.68;1.48;;;;;;;5.89;100.00;100482.50;5018752;28;20054;-64
2023/10/15 09:45:58;;;;;;;8.85;1.48;;;;;;;5.80;100.00;100477.97;5018865;28;20069;-64
2023/10/15 09:48:26;;;;;;;5.72;1.23;;;;;;;5.74;100.00;100488.19;5018604;28;20049;-62
2023/10/15 09:53:34;;;;;;;9.02;1.50;;;;;;;5.79;100.00;100482.44;5249935;23;20227;-64
2023/10/15 09:56:07;;;;;;;8.75;1.30;;;;;;;5.79;100.00;100484.28;5018884;28;20069;-64
2023/10/15 09:58:34;;;;;;;8.32;1.60;;;;;;;5.70;100.00;100492.09;5018490;28;20061;-64
2023/10/15 10:01:08;;;;;;;6.40;1.30;;;;;;;5.63;100.00;100493.63;5018023;28;21275;-64
2023/10/15 10:03:47;;;;;;;6.10;1.05;;;;;;;5.44;100.00;100494.34;5018451;28;20030;-64
2023/10/15 10:06:37;;;;;;;6.32;1.40;;;;;;;5.08;100.00;100503.69;5018168;28;20032;-63
2023/10/15 10:09:16;;;;;;;10.13;2.67;;;;;;;5.25;100.00;100510.22;5018209;28;20026;-64
2023/10/15 10:12:14;;;;;;;6.03;1.65;;;;;;;5.42;100.00;100503.44;5017241;28;20030;-64
2023/10/15 10:19:57;;;;;;;5.63;1.30;;;;;;;5.77;100.00;100503.06;5279101;23;20035;-64
2023/10/15 10:25:07;;;;;;;4.38;1.50;;;;;;;6.66;100.00;100514.59;5847161;23;20037;-64
2023/10/15 10:27:45;;;;;;;4.53;1.17;;;;;;;6.49;100.00;100504.63;4998577;28;20042;-64
2023/10/15 10:30:41;;;;;;;8.02;1.63;;;;;;;6.53;100.00;100508.72;4997363;28;20052;-64
2023/10/15 10:33:09;;;;;;;5.00;1.00;;;;;;;6.54;100.00;100502.41;5182966;23;20023;-64
2023/10/15 10:35:43;;;;;;;3.75;1.00;;;;;;;6.58;100.00;100502.97;4999665;28;20030;-64
2023/10/15 10:38:18;;;;;;;7.38;0.93;;;;;;;7.14;97.26;100500.41;4999205;28;20022;-64
2023/10/15 10:40:59;;;;;;;4.63;1.38;;;;;;;7.41;92.33;100504.13;4999728;28;20037;-64
2023/10/15 10:43:48;;;;;;;9.38;2.83;;;;;;;7.03;93.82;100511.22;5256601;23;20031;-63
2023/10/15 10:46:21;;;;;;;11.73;2.83;;;;;;;7.01;93.80;100505.19;5037713;28;20038;-63
2023/10/15 10:49:13;;;;;;;;;;;;;;;6.80;97.77;100497.34;5038224;28;20052;-64
2023/10/15 10:52:17;;;;;;;4.28;1.17;;;;;;;6.48;100.00;100497.63;5037238;28;19937;-65
2023/10/15 10:54:47;;;;;;;2.28;0.82;;;;;;;6.00;100.00;100503.69;5032494;28;20057;-64
2023/10/15 10:57:18;;;;;;;6.63;1.30;;;;;;;6.07;100.00;100499.50;5037317;28;20028;-64
2023/10/15 10:59:45;;;;;;;10.48;1.48;;;;;;;6.27;100.00;100494.25;5037205;28;20034;-64
2023/10/15 11:02:13;;;;;;;7.03;1.42;;;;;;;6.71;100.00;100499.03;5036981;28;20045;-64
2023/10/15 11:18:07;;;;;;;7.20;1.30;;;;;;;6.54;100.00;100486.41;6043721;23;20303;-64
2023/10/15 11:20:35;;;;;;;8.63;1.35;;;;;;;7.02;94.75;100501.56;4996844;28;20094;-64
2023/10/15 11:23:05;;;;;;;2.55;0.70;;;;;;;7.78;85.38;100487.28;4996753;28;20090;-66
2023/10/15 11:25:36;;;;;;;10.30;1.45;;;;;;;7.97;79.98;100481.88;4997283;28;20094;-65
2023/10/15 11:28:07;;;;;;;4.63;0.90;;;;;;;8.11;77.81;100481.34;4997268;28;20053;-65
2023/10/15 11:30:34;;;;;;;6.63;0.93;;;;;;;8.52;74.79;100492.47;4996644;28;20027;-65
2023/10/15 11:33:07;;;;;;;8.48;1.17;;;;;;;8.31;74.93;100481.25;4997305;28;20058;-65
2023/10/15 11:35:33;;;;;;;7.80;0.98;;;;;;;7.65;79.05;100495.63;4997140;28;20030;-65
2023/10/15 11:38:10;;;;;;;8.63;1.38;;;;;;;8.19;78.44;100483.25;4997131;28;20034;-64
2023/10/15 11:40:38;;;;;;;3.83;1.45;;;;;;;8.21;72.86;100493.81;4981019;28;20037;-64
2023/10/15 11:43:14;;;;;;;3.97;1.38;;;;;;;8.99;70.35;100484.19;4980770;28;20035;-65
2023/10/15 11:45:41;;;;;;;3.95;1.20;;;;;;;9.38;66.91;100491.00;4996737;28;20050;-65
2023/10/15 11:48:21;;;;;;;2.75;1.00;;;;;;;9.19;68.64;100497.38;4997564;28;20086;-64
2023/10/15 11:50:48;;;;;;;8.35;1.45;;;;;;;9.37;66.48;100492.84;4996610;28;20034;-65
2023/10/15 11:53:16;;;;;;;4.00;1.05;;;;;;;8.90;67.50;100495.81;4996904;28;20106;-64
2023/10/15 11:55:52;;;;;;;4.28;0.98;;;;;;;8.48;69.27;100499.13;4996488;28;20042;-65
2023/10/15 11:58:20;;;;;;;4.53;1.10;;;;;;;8.04;71.54;100500.81;4996871;28;20034;-64
2023/10/15 12:00:52;;;;;;;5.35;1.13;;;;;;;8.61;69.86;100496.91;4996967;28;20062;-64
2023/10/15 12:03:20;;;;;;;;;;;;;;;8.53;68.82;100495.97;4997256;28;20030;-64
2023/10/15 12:05:49;;;;;;;1.98;0.80;;;;;;;7.68;71.40;100500.69;4996568;28;19921;-64
2023/10/15 12:08:16;;;;;;;4.75;1.10;;;;;;;7.54;75.03;100504.66;4996163;28;20035;-64
2023/10/15 12:10:44;;;;;;;4.68;1.10;;;;;;;7.39;81.95;100506.94;4996421;28;20030;-64
2023/10/15 12:13:12;;;;;;;5.00;1.08;;;;;;;7.05;89.01;100501.28;4996813;28;20026;-64
2023/10/15 12:15:38;;;;;;;4.53;1.00;;;;;;;7.56;90.21;100489.31;4997307;28;20030;-64
2023/10/15 12:18:05;;;;;;;2.53;0.63;;;;;;;7.99;85.05;100493.25;4980111;28;20049;-64
2023/10/15 12:20:33;;;;;;;3.10;1.00;;;;;;;8.34;79.89;100495.13;4996509;28;20134;-64
2023/10/15 12:22:59;;;;;;;2.55;0.68;;;;;;;8.65;74.26;100492.09;4996440;28;20054;-64
2023/10/15 12:25:26;;;;;;;3.97;0.95;;;;;;;8.30;76.68;100485.75;4996469;28;20047;-64
2023/10/15 12:27:53;;;;;;;4.03;1.25;;;;;;;8.46;76.30;100489.56;4996544;28;20043;-64
2023/10/15 12:30:23;;;;;;;3.97;1.58;;;;;;;8.59;74.41;100492.69;4996635;28;20061;-64
2023/10/15 12:32:51;;;;;;;5.38;1.45;;;;;;;8.76;71.95;100496.38;4996638;28;20035;-64
2023/10/15 12:35:19;;;;;;;4.35;1.15;;;;;;;8.75;69.08;100500.03;4996282;28;20055;-64
2023/10/15 12:37:46;;;;;;;6.55;2.10;;;;;;;9.50;66.67;100495.09;4996410;28;20035;-64
2023/10/15 12:40:21;;;;;;;6.25;1.15;;;;;;;9.77;63.38;100489.53;5000157;28;20045;-65
2023/10/15 12:42:48;;;;;;;5.65;1.23;;;;;;;9.60;63.16;100494.97;5000066;28;20066;-65
2023/10/15 12:45:14;;;;;;;2.58;0.77;;;;;;;9.30;63.37;100499.81;5000330;28;20031;-65
2023/10/15 12:47:41;;;;;;;4.55;0.95;;;;;;;9.01;65.56;100500.91;5000315;28;20034;-65
2023/10/15 12:50:14;;;;;;;3.42;1.10;;;;;;;8.25;66.36;100497.88;5000950;28;20022;-64
2023/10/15 12:52:45;;;;;;;3.95;1.05;;;;;;;8.30;65.88;100490.25;4999570;28;20050;-65
2023/10/15 12:55:17;;;;;;;4.90;1.13;;;;;;;8.90;64.25;100490.47;4999980;28;20061;-65
2023/10/15 12:57:43;;;;;;;5.45;1.00;;;;;;;8.60;64.23;100497.88;5000192;28;20035;-65
2023/10/15 13:00:22;;;;;;;5.05;1.27;;;;;;;8.07;66.75;100506.69;5000295;28;20026;-65
2023/10/15 13:02:50;;;;;;;3.88;2.15;;;;;;;7.35;70.29;100499.38;5000127;28;20043;-65
2023/10/15 13:05:18;;;;;;;5.50;1.52;;;;;;;6.99;82.14;100504.50;4999967;28;20054;-65
2023/10/15 13:07:46;;;;;;;2.83;1.10;;;;;;;6.35;100.00;100510.38;4983662;28;20094;-65
2023/10/15 13:10:17;;;;;;;5.18;1.10;;;;;;;6.55;100.00;100490.75;4999838;28;20058;-65
2023/10/15 13:12:45;;;;;;;6.60;1.13;;;;;;;6.52;100.00;100504.38;4999925;28;20050;-65
2023/10/15 13:15:13;;;;;;;5.43;0.80;;;;;;;6.46;100.00;100497.78;5000020;28;20122;-65
2023/10/15 13:17:40;;;;;;;3.35;1.20;;;;;;;6.28;100.00;100488.78;4999695;28;20050;-64
2023/10/15 13:20:11;;;;;;;7.45;1.38;;;;;;;6.20;100.00;100494.75;4999723;28;20053;-64
2023/10/15 13:22:38;;;;;;;5.70;0.80;;;;;;;5.88;100.00;100508.28;5000144;28;20042;-64
2023/10/15 13:25:06;;;;;;;2.97;0.85;;;;;;;5.79;100.00;100497.59;4999896;28;20043;-64
2023/10/15 13:27:33;;;;;;;4.30;0.80;;;;;;;5.79;100.00;100501.09;4999593;28;20047;-65
2023/10/15 13:30:04;;;;;;;8.75;1.02;;;;;;;5.53;100.00;100503.38;4999692;28;20059;-65
2023/10/15 13:32:31;;;;;;;3.75;0.85;;;;;;;5.49;100.00;100492.16;4999484;28;20031;-64
2023/10/15 13:34:57;;;;;;;4.13;0.93;;;;;;;5.53;100.00;100495.41;4999597;28;20083;-64
2023/10/15 13:37:25;;;;;;;5.43;1.02;;;;;;;5.61;100.00;100489.41;4999000;28;20039;-64
2023/10/15 13:39:56;;;;;;;3.95;1.38;;;;;;;5.46;100.00;100488.91;4999330;28;20026;-64
2023/10/15 13:42:22;;;;;;;3.80;1.48;;;;;;;5.62;100.00;100502.56;4999038;28;20050;-64
2023/10/15 13:44:49;;;;;;;4.15;1.85;;;;;;;5.59;100.00;100500.16;4999148;28;20090;-64
2023/10/15 13:47:17;;;;;;;3.10;0.90;;;;;;;5.45;100.00;100501.34;4999255;28;20034;-64
2023/10/15 13:49:44;;;;;;;5.00;0.90;;;;;;;5.46;100.00;100507.53;4998979;28;20034;-64
2023/10/15 13:52:11;;;;;;;6.60;1.27;;;;;;;5.59;100.00;100504.66;4999106;28;20065;-64
2023/10/15 13:54:38;;;;;;;2.72;0.93;;;;;;;5.55;100.00;100496.09;4999604;28;20054;-64
2023/10/15 13:57:06;;;;;;;2.55;0.73;;;;;;;5.58;100.00;100505.63;4999265;28;20019;-65
2023/10/15 13:59:32;;;;;;;4.43;1.17;;;;;;;5.51;100.00;100508.81;4999082;28;20091;-65
2023/10/15 14:01:59;;;;;;;4.72;1.20;;;;;;;5.45;100.00;100505.84;4999126;28;20053;-64
2023/10/15 14:04:25;;;;;;;3.50;0.70;;;;;;;5.39;100.00;100501.91;4998762;28;20045;-65
2023/10/15 14:06:53;;;;;;;4.30;1.00;;;;;;;5.51;100.00;100513.31;4998848;28;20066;-65
2023/10/15 14:09:21;;;;;;;3.38;0.95;;;;;;;5.42;100.00;100506.09;4998880;28;20034;-65
2023/10/15 14:11:49;;;;;;;5.65;1.38;;;;;;;5.26;100.00;100507.44;4998633;28;20066;-64
2023/10/15 14:14:15;;;;;;;2.92;0.70;;;;;;;5.40;100.00;100508.06;4999206;28;20086;-64
2023/10/15 14:16:42;;;;;;;5.13;0.90;;;;;;;5.37;100.00;100506.50;4998694;28;20026;-65
2023/10/15 14:19:09;;;;;;;3.63;1.30;;;;;;;5.33;100.00;100510.41;4998842;28;20027;-65
2023/10/15 14:21:35;;;;;;;3.45;1.15;;;;;;;5.45;100.00;100519.97;4998600;28;20027;-64
2023/10/15 14:24:05;;;;;;;3.67;0.98;;;;;;;5.46;100.00;100523.50;4998456;28;20106;-65
2023/10/15 14:26:32;;;;;;;10.10;1.20;;;;;;;5.51;100.00;100531.94;4998445;28;20038;-64
2023/10/15 14:28:58;;;;;;;4.78;1.33;;;;;;;5.50;100.00;100541.72;4997976;28;20050;-65
2023/10/15 14:31:25;;;;;;;3.70;1.02;;;;;;;5.45;100.00;100538.59;4990222;28;20066;-65
2023/10/15 14:33:52;;;;;;;4.32;0.60;;;;;;;5.36;100.00;100547.38;4998425;28;20031;-64
2023/10/15 14:36:25;;;;;;;5.65;1.40;;;;;;;5.31;100.00;100546.09;4998173;28;20039;-65
2023/10/15 14:38:52;;;;;;;6.03;1.27;;;;;;;5.26;100.00;100544.66;4998401;28;20081;-65
2023/10/15 14:41:18;;;;;;;3.03;1.00;;;;;;;5.17;100.00;100550.75;4997817;28;20031;-65
2023/10/15 14:43:45;;;;;;;4.47;0.82;;;;;;;5.08;100.00;100551.53;4997633;28;20046;-64
2023/10/15 14:46:12;;;;;;;3.10;0.88;;;;;;;5.17;100.00;100561.38;4998258;28;20035;-65
2023/10/15 14:48:38;;;;;;;2.90;1.33;;;;;;;5.08;100.00;100570.16;4998303;28;20094;-65
2023/10/15 14:51:07;;;;;;;3.10;0.93;;;;;;;5.06;100.00;100569.44;4998055;28;20054;-65
2023/10/15 14:53:35;;;;;;;8.45;1.10;;;;;;;5.12;100.00;100573.41;4997795;28;20034;-65
2023/10/15 14:56:03;;;;;;;5.22;1.13;;;;;;;5.15;100.00;100568.66;5021217;23;20059;-64
2023/10/15 14:58:29;;;;;;;8.93;1.23;;;;;;;5.15;100.00;100573.16;4999129;28;20066;-64
2023/10/15 15:00:56;;;;;;;4.15;0.80;;;;;;;5.19;100.00;100570.09;4998533;28;20027;-64
2023/10/15 15:03:25;;;;;;;3.33;0.90;;;;;;;5.17;100.00;100574.69;4998623;28;20039;-64
2023/10/15 15:05:51;;;;;;;7.32;1.40;;;;;;;5.12;100.00;100578.72;4997701;28;20070;-65
2023/10/15 15:08:18;;;;;;;4.25;1.00;;;;;;;5.01;100.00;100571.66;4997251;28;20090;-65
2023/10/15 15:10:44;;;;;;;3.75;1.00;;;;;;;4.99;100.00;100579.72;4997249;28;20063;-65
2023/10/15 15:13:11;;;;;;;2.63;0.82;;;;;;;5.00;100.00;100585.88;4996869;28;20138;-64
2023/10/15 15:15:44;;;;;;;2.25;0.82;;;;;;;4.94;100.00;100584.59;4997917;28;20043;-65
2023/10/15 15:18:10;;;;;;;4.03;1.20;;;;;;;4.92;100.00;100577.72;4997155;28;20094;-65
2023/10/15 15:20:37;;;;;;;4.85;1.15;;;;;;;4.82;100.00;100577.63;4996952;28;20030;-65
2023/10/15 15:23:03;;;;;;;3.25;0.82;;;;;;;4.78;100.00;100584.16;4996902;28;20046;-65
2023/10/15 15:25:31;;;;;;;2.35;1.00;;;;;;;4.69;100.00;100583.09;4997013;28;20087;-65
2023/10/15 15:27:57;;;;;;;4.18;1.20;;;;;;;4.67;100.00;100590.38;4997102;28;20098;-65
2023/10/15 15:30:24;;;;;;;5.22;0.98;;;;;;;4.56;100.00;100595.72;4996481;28;20030;-65
2023/10/15 15:32:53;;;;;;;10.07;1.67;;;;;;;4.52;100.00;100603.09;4996861;28;20026;-63
2023/10/15 15:35:20;;;;;;;7.43;1.00;;;;;;;4.48;100.00;100600.78;4996507;28;20049;-65
2023/10/15 15:37:48;;;;;;;3.65;0.98;;;;;;;4.47;100.00;100599.94;4996604;28;20034;-64
2023/10/15 15:40:15;;;;;;;7.97;1.13;;;;;;;4.49;100.00;100605.16;4996479;28;20093;-64
2023/10/15 15:42:42;;;;;;;7.40;1.25;;;;;;;4.42;100.00;100603.97;4996885;28;20042;-64
2023/10/15 15:45:12;;;;;;;6.75;1.05;;;;;;;4.39;100.00;100606.84;4997305;28;20034;-64
2023/10/15 15:47:39;;;;;;;8.18;1.58;;;;;;;4.34;100.00;100615.97;4996450;28;20023;-64
2023/10/15 15:50:11;;;;;;;6.03;1.48;;;;;;;4.28;100.00;100613.00;4994502;28;20034;-65
2023/10/15 15:52:37;;;;;;;;;;;;;;;4.26;100.00;100610.44;5137609;23;20031;-63
2023/10/15 15:55:06;;;;;;;2.42;0.90;;;;;;;4.23;100.00;100613.34;4997608;28;19906;-63
2023/10/15 15:57:32;;;;;;;3.83;1.27;;;;;;;4.19;100.00;100617.22;4996764;28;20110;-63
2023/10/15 15:59:59;;;;;;;3.88;1.27;;;;;;;4.08;100.00;100614.56;4997536;28;20033;-64
2023/10/15 16:02:29;;;;;;;14.20;2.08;;;;;;;4.07;100.00;100615.50;4997165;28;20058;-64
2023/10/15 16:04:58;;;;;;;3.72;1.30;;;;;;;4.00;100.00;100627.59;4996515;28;20054;-64
2023/10/15 16:07:25;;;;;;;4.32;1.42;;;;;;;3.98;100.00;100634.84;4996373;28;20030;-64
2023/10/15 16:12:27;;;;;;;5.25;1.40;;;;;;;3.91;100.00;100630.97;5761104;23;20054;-65
2023/10/15 16:14:54;;;;;;;9.35;2.13;;;;;;;3.89;100.00;100640.84;4996958;28;20058;-64
2023/10/15 16:17:20;;;;;;;2.90;1.30;;;;;;;3.76;100.00;100641.81;4996666;28;20042;-64
2023/10/15 16:19:51;;;;;;;5.80;1.33;;;;;;;3.80;100.00;100640.59;4996710;28;20030;-64
2023/10/15 16:22:18;;;;;;;9.27;1.50;;;;;;;3.79;100.00;100649.53;4996971;28;20062;-64
2023/10/15 16:24:45;;;;;;;5.07;1.20;;;;;;;3.71;100.00;100651.06;4996452;28;20039;-64
2023/10/15 16:27:22;;;;;;;7.20;1.05;;;;;;;3.69;100.00;100653.88;4996224;28;20055;-64
2023/10/15 16:32:23;;;;;;;9.90;1.67;;;;;;;3.69;100.00;100660.94;5993483;23;20233;-63
2023/10/15 16:34:51;;;;;;;7.50;1.48;;;;;;;3.58;100.00;100667.06;4992113;28;20066;-64
2023/10/15 16:37:17;;;;;;;6.47;1.15;;;;;;;3.55;100.00;100673.47;4996533;28;20027;-64
2023/10/15 16:39:44;;;;;;;4.90;1.58;;;;;;;3.62;100.00;100677.34;4979809;28;20066;-64
2023/10/15 16:42:11;;;;;;;8.25;1.40;;;;;;;3.54;100.00;100669.13;4996336;28;20035;-64
2023/10/15 16:49:54;;;;;;;8.00;1.52;;;;;;;3.57;100.00;100683.97;5662377;23;20037;-65
2023/10/15 16:52:20;;;;;;;5.60;1.45;;;;;;;3.51;100.00;100684.41;4996375;28;20038;-64
2023/10/15 16:54:49;;;;;;;4.85;1.17;;;;;;;3.52;100.00;100688.78;4996842;28;20031;-64
2023/10/15 16:57:15;;;;;;;10.45;2.28;;;;;;;3.50;100.00;100690.69;4996306;28;20050;-64
2023/10/15 16:59:42;;;;;;;8.55;1.63;;;;;;;3.55;100.00;100696.47;4996474;28;20038;-64
2023/10/15 17:20:56;;;;;;;4.38;1.25;;;;;;;3.79;100.00;100701.75;5955567;23;20006;-64
2023/10/15 17:23:23;;;;;;;6.15;1.30;;;;;;;3.70;100.00;100698.00;4996181;28;20050;-64
2023/10/15 17:25:49;;;;;;;6.57;1.83;;;;;;;3.70;100.00;100705.94;4997778;28;20062;-64
2023/10/15 17:28:16;;;;;;;4.70;1.55;;;;;;;3.62;100.00;100708.34;4998420;28;20078;-65
2023/10/15 17:30:46;;;;;;;12.27;1.75;;;;;;;3.54;100.00;100700.09;4998288;28;20113;-64
2023/10/15 17:33:13;;;;;;;3.88;1.40;;;;;;;3.51;100.00;100702.97;4997986;28;20062;-64
2023/10/15 17:35:40;;;;;;;5.35;1.67;;;;;;;3.37;100.00;100704.84;4999251;28;20058;-64
2023/10/15 17:38:06;;;;;;;8.10;2.08;;;;;;;3.24;100.00;100696.16;4998755;28;20049;-64
2023/10/15 17:54:04;;;;;;;5.75;1.70;;;;;;;2.99;100.00;100694.44;5779868;23;20289;-64
2023/10/15 17:56:31;;;;;;;5.88;1.58;;;;;;;3.06;100.00;100689.53;4999676;28;20055;-64
2023/10/15 17:58:57;;;;;;;11.48;1.60;;;;;;;3.13;100.00;100698.72;4999179;28;20030;-64
2023/10/15 18:01:24;;;;;;;7.70;1.27;;;;;;;3.19;100.00;100689.47;4998955;28;20050;-64
2023/10/15 18:03:54;;;;;;;6.03;1.27;;;;;;;3.20;100.00;100696.47;4999268;28;20035;-64
2023/10/15 18:06:22;;;;;;;8.63;1.83;;;;;;;3.23;100.00;100693.59;4998832;28;20098;-63
2023/10/15 18:08:48;;;;;;;4.00;1.52;;;;;;;3.19;100.00;100702.72;4999304;28;20039;-63
2023/10/15 18:11:15;;;;;;;9.10;1.58;;;;;;;3.14;100.00;100703.91;4999191;28;20047;-63
2023/10/15 18:13:42;;;;;;;6.07;1.65;;;;;;;3.09;100.00;100700.75;4999153;28;20038;-63
2023/10/15 18:16:10;;;;;;;7.93;1.48;;;;;;;3.13;100.00;100706.66;4999965;28;20031;-63
2023/10/15 18:18:38;;;;;;;5.78;1.33;;;;;;;3.19;100.00;100706.22;4998775;28;20031;-63
2023/10/15 18:21:07;;;;;;;8.45;1.38;;;;;;;3.14;100.00;100711.03;4999038;28;20029;-64
2023/10/15 18:23:34;;;;;;;5.65;1.20;;;;;;;3.04;100.00;100700.25;4997136;28;20035;-63
2023/10/15 18:42:14;;;;;;;8.77;1.52;;;;;;;1.32;100.00;100499.84;5380834;23;20038;-64
2023/10/15 18:44:42;;;;;;;6.20;1.40;;;;;;;0.97;100.00;100455.56;4979324;29;20039;-64
2023/10/15 18:47:09;;;;;;;6.97;1.38;;;;;;;0.76;100.00;100420.06;4979988;29;20468;-64
2023/10/15 18:49:35;;;;;;;5.25;1.77;;;;;;;0.39;100.00;100372.38;4978993;29;20026;-64
2023/10/15 18:52:02;;;;;;;8.95;1.80;;;;;;;-0.21;100.00;100272.69;4979007;29;20027;-64
2023/10/15 18:54:29;;;;;;;6.50;1.25;;;;;;;-0.86;100.00;100183.00;4978672;29;20035;-64
2023/10/15 18:56:55;;;;;;;7.10;1.55;;;;;;;-1.58;100.00;100071.84;4978796;29;20046;-64
2023/10/15 19:01:57;;;;;;;7.05;1.05;;;;;;;-3.16;100.00;99830.44;5635382;23;19929;-63
2023/10/15 19:04:24;;;;;;;7.00;1.38;;;;;;;-4.77;100.00;99564.22;4988732;28;20046;-64
2023/10/15 19:06:51;;;;;;;9.10;1.50;;;;;;;-6.82;100.00;99247.84;4998582;28;20027;-64
2023/10/15 19:09:18;;;;;;;6.57;2.67;;;;;;;-7.99;100.00;99059.84;4996960;28;20055;-64
2023/10/15 19:17:09;;;;;;;7.43;1.80;;;;;;;-18.88;100.00;97284.31;4977864;23;19939;-65
2023/10/15 19:19:38;;;;;;;11.60;1.25;;;;;;;-30.50;100.00;95415.16;4977938;29;20050;-64